sensor_id;sensor_type;location;lat;lon;timestamp;P1;durP1;ratioP1;P2;durP2;ratioP2
19521;SDS011;9905;52.126;5.596;2023-04-24T00:00:05;16.23;;;15.82;;
19521;SDS011;9905;52.126;5.596;2023-04-24T00:02:35;16.45;;;16.05;;
19521;SDS011;9905;52.126;5.596;2023-04-24T00:05:03;16.45;;;15.85;;
19521;SDS011;9905;52.126;5.596;2023-04-24T00:07:31;17.10;;;16.50;;
19521;SDS011;9905;52.126;5.596;2023-04-24T00:09:58;16.73;;;16.30;;
19521;SDS011;9905;52.126;5.596;2023-04-24T00:12:25;18.13;;;17.50;;
19521;SDS011;9905;52.126;5.596;2023-04-24T00:14:52;18.90;;;18.17;;
19521;SDS011;9905;52.126;5.596;2023-04-24T00:17:19;18.75;;;18.10;;
19521;SDS011;9905;52.126;5.596;2023-04-24T00:19:47;20.20;;;19.50;;
19521;SDS011;9905;52.126;5.596;2023-04-24T00:22:16;20.05;;;19.35;;
19521;SDS011;9905;52.126;5.596;2023-04-24T00:24:43;20.40;;;19.70;;
19521;SDS011;9905;52.126;5.596;2023-04-24T00:27:09;20.50;;;19.70;;
19521;SDS011;9905;52.126;5.596;2023-04-24T00:29:36;21.40;;;20.50;;
19521;SDS011;9905;52.126;5.596;2023-04-24T00:32:03;21.45;;;20.52;;
19521;SDS011;9905;52.126;5.596;2023-04-24T00:34:30;21.42;;;20.65;;
19521;SDS011;9905;52.126;5.596;2023-04-24T00:36:58;21.25;;;20.35;;
19521;SDS011;9905;52.126;5.596;2023-04-24T00:39:25;21.88;;;21.02;;
19521;SDS011;9905;52.126;5.596;2023-04-24T00:41:52;21.23;;;20.38;;
19521;SDS011;9905;52.126;5.596;2023-04-24T00:44:20;21.00;;;20.30;;
19521;SDS011;9905;52.126;5.596;2023-04-24T00:46:47;21.25;;;20.40;;
19521;SDS011;9905;52.126;5.596;2023-04-24T00:49:17;20.63;;;19.92;;
19521;SDS011;9905;52.126;5.596;2023-04-24T00:51:44;21.73;;;20.83;;
19521;SDS011;9905;52.126;5.596;2023-04-24T00:54:12;21.15;;;20.45;;
19521;SDS011;9905;52.126;5.596;2023-04-24T00:56:39;21.17;;;20.20;;
19521;SDS011;9905;52.126;5.596;2023-04-24T00:59:07;20.77;;;19.98;;
19521;SDS011;9905;52.126;5.596;2023-04-24T01:01:34;21.90;;;20.92;;
19521;SDS011;9905;52.126;5.596;2023-04-24T01:04:01;21.75;;;20.85;;
19521;SDS011;9905;52.126;5.596;2023-04-24T01:06:29;21.60;;;20.80;;
19521;SDS011;9905;52.126;5.596;2023-04-24T01:08:57;22.25;;;21.25;;
19521;SDS011;9905;52.126;5.596;2023-04-24T01:11:26;22.50;;;21.52;;
19521;SDS011;9905;52.126;5.596;2023-04-24T01:13:53;21.80;;;20.70;;
19521;SDS011;9905;52.126;5.596;2023-04-24T01:16:20;22.38;;;21.30;;
19521;SDS011;9905;52.126;5.596;2023-04-24T01:18:47;22.95;;;21.75;;
19521;SDS011;9905;52.126;5.596;2023-04-24T01:21:15;24.08;;;22.88;;
19521;SDS011;9905;52.126;5.596;2023-04-24T01:23:43;23.10;;;22.20;;
19521;SDS011;9905;52.126;5.596;2023-04-24T01:26:11;23.40;;;22.40;;
19521;SDS011;9905;52.126;5.596;2023-04-24T01:28:39;23.33;;;22.27;;
19521;SDS011;9905;52.126;5.596;2023-04-24T01:31:06;24.40;;;23.20;;
19521;SDS011;9905;52.126;5.596;2023-04-24T01:33:32;23.40;;;22.30;;
19521;SDS011;9905;52.126;5.596;2023-04-24T01:35:59;23.42;;;22.40;;
19521;SDS011;9905;52.126;5.596;2023-04-24T01:38:27;23.25;;;22.10;;
19521;SDS011;9905;52.126;5.596;2023-04-24T01:40:55;24.55;;;23.45;;
19521;SDS011;9905;52.126;5.596;2023-04-24T01:43:22;24.13;;;23.02;;
19521;SDS011;9905;52.126;5.596;2023-04-24T01:45:49;23.73;;;22.65;;
19521;SDS011;9905;52.126;5.596;2023-04-24T01:48:16;24.85;;;23.55;;
19521;SDS011;9905;52.126;5.596;2023-04-24T01:50:43;24.60;;;23.40;;
19521;SDS011;9905;52.126;5.596;2023-04-24T01:53:09;25.52;;;24.13;;
19521;SDS011;9905;52.126;5.596;2023-04-24T01:55:36;24.85;;;23.65;;
19521;SDS011;9905;52.126;5.596;2023-04-24T01:58:04;25.23;;;23.92;;
19521;SDS011;9905;52.126;5.596;2023-04-24T02:00:32;24.35;;;23.35;;
19521;SDS011;9905;52.126;5.596;2023-04-24T02:02:59;25.45;;;24.15;;
19521;SDS011;9905;52.126;5.596;2023-04-24T02:05:27;24.55;;;23.42;;
19521;SDS011;9905;52.126;5.596;2023-04-24T02:07:53;24.02;;;22.95;;
19521;SDS011;9905;52.126;5.596;2023-04-24T02:10:21;23.88;;;22.60;;
19521;SDS011;9905;52.126;5.596;2023-04-24T02:12:48;23.02;;;22.02;;
19521;SDS011;9905;52.126;5.596;2023-04-24T02:15:16;24.40;;;23.20;;
19521;SDS011;9905;52.126;5.596;2023-04-24T02:17:42;22.15;;;21.35;;
19521;SDS011;9905;52.126;5.596;2023-04-24T02:20:09;21.48;;;20.77;;
19521;SDS011;9905;52.126;5.596;2023-04-24T02:22:36;21.90;;;21.20;;
19521;SDS011;9905;52.126;5.596;2023-04-24T02:25:03;21.92;;;21.23;;
19521;SDS011;9905;52.126;5.596;2023-04-24T02:27:31;20.35;;;19.73;;
19521;SDS011;9905;52.126;5.596;2023-04-24T02:29:57;21.00;;;20.30;;
19521;SDS011;9905;52.126;5.596;2023-04-24T02:32:25;23.50;;;22.30;;
19521;SDS011;9905;52.126;5.596;2023-04-24T02:34:52;23.50;;;22.50;;
19521;SDS011;9905;52.126;5.596;2023-04-24T02:37:19;23.48;;;22.38;;
19521;SDS011;9905;52.126;5.596;2023-04-24T02:39:46;22.67;;;21.48;;
19521;SDS011;9905;52.126;5.596;2023-04-24T02:42:12;22.85;;;21.73;;
19521;SDS011;9905;52.126;5.596;2023-04-24T02:44:39;22.48;;;21.60;;
19521;SDS011;9905;52.126;5.596;2023-04-24T02:47:06;22.50;;;21.60;;
19521;SDS011;9905;52.126;5.596;2023-04-24T02:49:34;22.38;;;21.38;;
19521;SDS011;9905;52.126;5.596;2023-04-24T02:52:01;22.42;;;21.52;;
19521;SDS011;9905;52.126;5.596;2023-04-24T02:54:28;22.20;;;21.30;;
19521;SDS011;9905;52.126;5.596;2023-04-24T02:56:55;21.88;;;20.98;;
19521;SDS011;9905;52.126;5.596;2023-04-24T02:59:21;21.65;;;20.67;;
19521;SDS011;9905;52.126;5.596;2023-04-24T03:01:48;22.90;;;21.85;;
19521;SDS011;9905;52.126;5.596;2023-04-24T03:04:15;22.75;;;21.67;;
19521;SDS011;9905;52.126;5.596;2023-04-24T03:06:46;22.05;;;21.05;;
19521;SDS011;9905;52.126;5.596;2023-04-24T03:09:13;22.75;;;21.63;;
19521;SDS011;9905;52.126;5.596;2023-04-24T03:11:39;22.88;;;21.88;;
19521;SDS011;9905;52.126;5.596;2023-04-24T03:14:06;22.52;;;21.52;;
19521;SDS011;9905;52.126;5.596;2023-04-24T03:16:33;21.85;;;20.83;;
19521;SDS011;9905;52.126;5.596;2023-04-24T03:19:00;20.95;;;20.15;;
19521;SDS011;9905;52.126;5.596;2023-04-24T03:21:27;20.75;;;19.95;;
19521;SDS011;9905;52.126;5.596;2023-04-24T03:23:55;21.38;;;20.48;;
19521;SDS011;9905;52.126;5.596;2023-04-24T03:26:22;21.08;;;20.17;;
19521;SDS011;9905;52.126;5.596;2023-04-24T03:28:49;21.10;;;20.30;;
19521;SDS011;9905;52.126;5.596;2023-04-24T03:31:15;20.55;;;19.73;;
19521;SDS011;9905;52.126;5.596;2023-04-24T03:33:44;21.85;;;20.92;;
19521;SDS011;9905;52.126;5.596;2023-04-24T03:36:10;22.20;;;21.23;;
19521;SDS011;9905;52.126;5.596;2023-04-24T03:38:37;21.98;;;21.15;;
19521;SDS011;9905;52.126;5.596;2023-04-24T03:41:05;21.67;;;20.77;;
19521;SDS011;9905;52.126;5.596;2023-04-24T03:43:32;22.73;;;21.83;;
19521;SDS011;9905;52.126;5.596;2023-04-24T03:45:59;22.30;;;21.50;;
19521;SDS011;9905;52.126;5.596;2023-04-24T03:48:26;22.58;;;21.58;;
19521;SDS011;9905;52.126;5.596;2023-04-24T03:50:53;21.58;;;20.77;;
19521;SDS011;9905;52.126;5.596;2023-04-24T03:53:19;21.80;;;20.90;;
19521;SDS011;9905;52.126;5.596;2023-04-24T03:55:46;21.35;;;20.55;;
19521;SDS011;9905;52.126;5.596;2023-04-24T03:58:15;20.42;;;19.73;;
19521;SDS011;9905;52.126;5.596;2023-04-24T04:00:42;21.23;;;20.42;;
19521;SDS011;9905;52.126;5.596;2023-04-24T04:03:11;20.70;;;19.90;;
19521;SDS011;9905;52.126;5.596;2023-04-24T04:05:38;20.50;;;19.70;;
19521;SDS011;9905;52.126;5.596;2023-04-24T04:08:05;20.30;;;19.58;;
19521;SDS011;9905;52.126;5.596;2023-04-24T04:10:32;20.20;;;19.45;;
19521;SDS011;9905;52.126;5.596;2023-04-24T04:12:59;19.92;;;19.25;;
19521;SDS011;9905;52.126;5.596;2023-04-24T04:15:27;19.02;;;18.33;;
19521;SDS011;9905;52.126;5.596;2023-04-24T04:17:54;18.85;;;18.25;;
19521;SDS011;9905;52.126;5.596;2023-04-24T04:20:20;18.48;;;17.88;;
19521;SDS011;9905;52.126;5.596;2023-04-24T04:22:47;18.13;;;17.58;;
19521;SDS011;9905;52.126;5.596;2023-04-24T04:25:14;18.90;;;18.30;;
19521;SDS011;9905;52.126;5.596;2023-04-24T04:27:40;18.35;;;17.75;;
19521;SDS011;9905;52.126;5.596;2023-04-24T04:30:07;17.90;;;17.33;;
19521;SDS011;9905;52.126;5.596;2023-04-24T04:32:36;17.40;;;16.88;;
19521;SDS011;9905;52.126;5.596;2023-04-24T04:35:03;17.33;;;16.83;;
19521;SDS011;9905;52.126;5.596;2023-04-24T04:37:31;17.60;;;17.00;;
19521;SDS011;9905;52.126;5.596;2023-04-24T04:39:58;17.05;;;16.55;;
19521;SDS011;9905;52.126;5.596;2023-04-24T04:42:25;16.55;;;16.05;;
19521;SDS011;9905;52.126;5.596;2023-04-24T04:44:53;17.20;;;16.70;;
19521;SDS011;9905;52.126;5.596;2023-04-24T04:47:21;17.50;;;16.80;;
19521;SDS011;9905;52.126;5.596;2023-04-24T04:49:50;17.50;;;16.90;;
19521;SDS011;9905;52.126;5.596;2023-04-24T04:52:17;18.73;;;18.13;;
19521;SDS011;9905;52.126;5.596;2023-04-24T04:54:43;18.60;;;18.10;;
19521;SDS011;9905;52.126;5.596;2023-04-24T04:57:11;18.83;;;18.30;;
19521;SDS011;9905;52.126;5.596;2023-04-24T04:59:38;19.40;;;18.70;;
19521;SDS011;9905;52.126;5.596;2023-04-24T05:02:06;18.75;;;18.25;;
19521;SDS011;9905;52.126;5.596;2023-04-24T05:04:32;18.08;;;17.58;;
19521;SDS011;9905;52.126;5.596;2023-04-24T05:07:00;18.48;;;17.88;;
19521;SDS011;9905;52.126;5.596;2023-04-24T05:09:27;18.25;;;17.75;;
19521;SDS011;9905;52.126;5.596;2023-04-24T05:11:54;19.33;;;18.73;;
19521;SDS011;9905;52.126;5.596;2023-04-24T05:14:21;18.80;;;18.20;;
19521;SDS011;9905;52.126;5.596;2023-04-24T05:16:48;18.50;;;17.90;;
19521;SDS011;9905;52.126;5.596;2023-04-24T05:19:15;19.08;;;18.48;;
19521;SDS011;9905;52.126;5.596;2023-04-24T05:21:42;19.15;;;18.45;;
19521;SDS011;9905;52.126;5.596;2023-04-24T05:24:10;19.00;;;18.48;;
19521;SDS011;9905;52.126;5.596;2023-04-24T05:26:37;20.38;;;19.52;;
19521;SDS011;9905;52.126;5.596;2023-04-24T05:29:04;20.42;;;19.83;;
19521;SDS011;9905;52.126;5.596;2023-04-24T05:31:30;21.88;;;21.00;;
19521;SDS011;9905;52.126;5.596;2023-04-24T05:33:57;21.88;;;21.05;;
19521;SDS011;9905;52.126;5.596;2023-04-24T05:36:24;21.35;;;20.55;;
19521;SDS011;9905;52.126;5.596;2023-04-24T05:38:52;21.85;;;20.98;;
19521;SDS011;9905;52.126;5.596;2023-04-24T05:41:20;21.05;;;20.35;;
19521;SDS011;9905;52.126;5.596;2023-04-24T05:43:47;20.58;;;19.85;;
19521;SDS011;9905;52.126;5.596;2023-04-24T05:46:14;21.20;;;20.40;;
19521;SDS011;9905;52.126;5.596;2023-04-24T05:48:40;21.52;;;20.73;;
19521;SDS011;9905;52.126;5.596;2023-04-24T05:51:08;21.20;;;20.40;;
19521;SDS011;9905;52.126;5.596;2023-04-24T05:53:35;21.80;;;21.00;;
19521;SDS011;9905;52.126;5.596;2023-04-24T05:56:02;23.00;;;22.10;;
19521;SDS011;9905;52.126;5.596;2023-04-24T05:58:30;21.98;;;21.10;;
19521;SDS011;9905;52.126;5.596;2023-04-24T06:00:57;22.33;;;21.08;;
19521;SDS011;9905;52.126;5.596;2023-04-24T06:03:25;23.45;;;22.55;;
19521;SDS011;9905;52.126;5.596;2023-04-24T06:05:52;23.17;;;22.27;;
19521;SDS011;9905;52.126;5.596;2023-04-24T06:08:19;22.30;;;21.50;;
19521;SDS011;9905;52.126;5.596;2023-04-24T06:10:46;22.92;;;22.10;;
19521;SDS011;9905;52.126;5.596;2023-04-24T06:13:13;23.38;;;22.38;;
19521;SDS011;9905;52.126;5.596;2023-04-24T06:15:41;21.42;;;20.63;;
19521;SDS011;9905;52.126;5.596;2023-04-24T06:18:08;23.60;;;22.38;;
19521;SDS011;9905;52.126;5.596;2023-04-24T06:20:35;23.35;;;22.35;;
19521;SDS011;9905;52.126;5.596;2023-04-24T06:23:02;23.00;;;22.10;;
19521;SDS011;9905;52.126;5.596;2023-04-24T06:25:28;23.63;;;22.67;;
19521;SDS011;9905;52.126;5.596;2023-04-24T06:27:55;23.40;;;22.40;;
19521;SDS011;9905;52.126;5.596;2023-04-24T06:30:22;24.83;;;23.63;;
19521;SDS011;9905;52.126;5.596;2023-04-24T06:32:51;25.25;;;24.15;;
19521;SDS011;9905;52.126;5.596;2023-04-24T06:35:17;24.70;;;23.60;;
19521;SDS011;9905;52.126;5.596;2023-04-24T06:37:44;26.85;;;25.73;;
19521;SDS011;9905;52.126;5.596;2023-04-24T06:40:11;25.58;;;24.38;;
19521;SDS011;9905;52.126;5.596;2023-04-24T06:42:38;26.63;;;25.33;;
19521;SDS011;9905;52.126;5.596;2023-04-24T06:45:05;26.55;;;25.38;;
19521;SDS011;9905;52.126;5.596;2023-04-24T06:47:32;26.30;;;25.10;;
19521;SDS011;9905;52.126;5.596;2023-04-24T06:50:00;25.60;;;24.50;;
19521;SDS011;9905;52.126;5.596;2023-04-24T06:52:27;25.50;;;24.60;;
19521;SDS011;9905;52.126;5.596;2023-04-24T06:54:59;25.00;;;24.10;;
19521;SDS011;9905;52.126;5.596;2023-04-24T06:57:27;25.90;;;25.00;;
19521;SDS011;9905;52.126;5.596;2023-04-24T06:59:53;26.80;;;25.80;;
19521;SDS011;9905;52.126;5.596;2023-04-24T07:02:20;26.73;;;25.65;;
19521;SDS011;9905;52.126;5.596;2023-04-24T07:04:47;28.55;;;27.17;;
19521;SDS011;9905;52.126;5.596;2023-04-24T07:07:15;29.42;;;27.92;;
19521;SDS011;9905;52.126;5.596;2023-04-24T07:09:42;31.65;;;29.75;;
19521;SDS011;9905;52.126;5.596;2023-04-24T07:12:10;31.83;;;30.08;;
19521;SDS011;9905;52.126;5.596;2023-04-24T07:14:37;31.98;;;30.05;;
19521;SDS011;9905;52.126;5.596;2023-04-24T07:17:04;31.67;;;29.52;;
19521;SDS011;9905;52.126;5.596;2023-04-24T07:19:31;32.42;;;30.25;;
19521;SDS011;9905;52.126;5.596;2023-04-24T07:22:00;31.10;;;29.27;;
19521;SDS011;9905;52.126;5.596;2023-04-24T07:24:29;32.03;;;30.02;;
19521;SDS011;9905;52.126;5.596;2023-04-24T07:26:57;31.42;;;29.52;;
19521;SDS011;9905;52.126;5.596;2023-04-24T07:29:24;32.30;;;30.23;;
19521;SDS011;9905;52.126;5.596;2023-04-24T07:31:51;31.23;;;29.42;;
19521;SDS011;9905;52.126;5.596;2023-04-24T07:34:19;32.78;;;30.67;;
19521;SDS011;9905;52.126;5.596;2023-04-24T07:36:45;32.67;;;30.48;;
19521;SDS011;9905;52.126;5.596;2023-04-24T07:39:12;33.28;;;31.00;;
19521;SDS011;9905;52.126;5.596;2023-04-24T07:41:40;33.17;;;30.77;;
19521;SDS011;9905;52.126;5.596;2023-04-24T07:44:07;33.10;;;30.60;;
19521;SDS011;9905;52.126;5.596;2023-04-24T07:46:34;33.20;;;30.88;;
19521;SDS011;9905;52.126;5.596;2023-04-24T07:49:01;30.85;;;28.70;;
19521;SDS011;9905;52.126;5.596;2023-04-24T07:51:29;32.55;;;30.30;;
19521;SDS011;9905;52.126;5.596;2023-04-24T07:53:57;30.98;;;28.58;;
19521;SDS011;9905;52.126;5.596;2023-04-24T07:56:24;31.58;;;29.40;;
19521;SDS011;9905;52.126;5.596;2023-04-24T07:58:52;30.80;;;28.63;;
19521;SDS011;9905;52.126;5.596;2023-04-24T08:01:19;30.63;;;28.63;;
19521;SDS011;9905;52.126;5.596;2023-04-24T08:03:45;30.05;;;28.25;;
19521;SDS011;9905;52.126;5.596;2023-04-24T08:06:12;32.42;;;30.08;;
19521;SDS011;9905;52.126;5.596;2023-04-24T08:08:39;32.35;;;29.85;;
19521;SDS011;9905;52.126;5.596;2023-04-24T08:11:06;32.15;;;29.85;;
19521;SDS011;9905;52.126;5.596;2023-04-24T08:13:32;30.83;;;28.70;;
19521;SDS011;9905;52.126;5.596;2023-04-24T08:16:00;31.88;;;29.85;;
19521;SDS011;9905;52.126;5.596;2023-04-24T08:18:27;32.08;;;30.00;;
19521;SDS011;9905;52.126;5.596;2023-04-24T08:20:54;33.72;;;31.13;;
19521;SDS011;9905;52.126;5.596;2023-04-24T08:23:21;32.83;;;30.60;;
19521;SDS011;9905;52.126;5.596;2023-04-24T08:25:48;32.83;;;30.45;;
19521;SDS011;9905;52.126;5.596;2023-04-24T08:28:15;32.08;;;29.98;;
19521;SDS011;9905;52.126;5.596;2023-04-24T08:30:45;30.52;;;28.38;;
19521;SDS011;9905;52.126;5.596;2023-04-24T08:33:13;29.85;;;28.02;;
19521;SDS011;9905;52.126;5.596;2023-04-24T08:35:40;28.08;;;26.38;;
19521;SDS011;9905;52.126;5.596;2023-04-24T08:38:06;29.40;;;27.75;;
19521;SDS011;9905;52.126;5.596;2023-04-24T08:40:34;28.58;;;26.83;;
19521;SDS011;9905;52.126;5.596;2023-04-24T08:43:02;30.75;;;28.90;;
19521;SDS011;9905;52.126;5.596;2023-04-24T08:45:29;30.40;;;27.95;;
19521;SDS011;9905;52.126;5.596;2023-04-24T08:47:56;30.40;;;28.58;;
19521;SDS011;9905;52.126;5.596;2023-04-24T08:50:25;30.90;;;28.85;;
19521;SDS011;9905;52.126;5.596;2023-04-24T08:52:52;29.20;;;27.55;;
19521;SDS011;9905;52.126;5.596;2023-04-24T08:55:20;27.42;;;26.05;;
19521;SDS011;9905;52.126;5.596;2023-04-24T08:57:49;28.75;;;26.92;;
19521;SDS011;9905;52.126;5.596;2023-04-24T09:00:18;27.35;;;26.15;;
19521;SDS011;9905;52.126;5.596;2023-04-24T09:02:46;29.98;;;27.98;;
19521;SDS011;9905;52.126;5.596;2023-04-24T09:05:16;30.05;;;27.73;;
19521;SDS011;9905;52.126;5.596;2023-04-24T09:07:45;28.13;;;26.75;;
19521;SDS011;9905;52.126;5.596;2023-04-24T09:10:15;28.65;;;27.15;;
19521;SDS011;9905;52.126;5.596;2023-04-24T09:12:42;28.63;;;26.50;;
19521;SDS011;9905;52.126;5.596;2023-04-24T09:15:10;28.52;;;26.45;;
19521;SDS011;9905;52.126;5.596;2023-04-24T09:17:37;27.02;;;25.48;;
19521;SDS011;9905;52.126;5.596;2023-04-24T09:20:05;25.40;;;24.30;;
19521;SDS011;9905;52.126;5.596;2023-04-24T09:22:32;25.38;;;23.85;;
19521;SDS011;9905;52.126;5.596;2023-04-24T09:25:01;23.38;;;22.10;;
19521;SDS011;9905;52.126;5.596;2023-04-24T09:27:29;22.63;;;21.17;;
19521;SDS011;9905;52.126;5.596;2023-04-24T09:29:57;22.25;;;20.73;;
19521;SDS011;9905;52.126;5.596;2023-04-24T09:32:24;21.73;;;20.40;;
19521;SDS011;9905;52.126;5.596;2023-04-24T09:35:05;20.08;;;18.77;;
19521;SDS011;9905;52.126;5.596;2023-04-24T09:37:34;18.25;;;17.25;;
19521;SDS011;9905;52.126;5.596;2023-04-24T09:40:13;18.45;;;17.23;;
19521;SDS011;9905;52.126;5.596;2023-04-24T09:42:43;18.13;;;16.77;;
19521;SDS011;9905;52.126;5.596;2023-04-24T09:45:11;17.52;;;16.20;;
19521;SDS011;9905;52.126;5.596;2023-04-24T09:47:38;16.70;;;15.68;;
19521;SDS011;9905;52.126;5.596;2023-04-24T09:50:09;15.75;;;15.15;;
19521;SDS011;9905;52.126;5.596;2023-04-24T09:52:39;14.95;;;14.35;;
19521;SDS011;9905;52.126;5.596;2023-04-24T09:55:10;14.38;;;13.65;;
19521;SDS011;9905;52.126;5.596;2023-04-24T09:57:46;14.52;;;13.63;;
19521;SDS011;9905;52.126;5.596;2023-04-24T10:00:17;14.00;;;13.35;;
19521;SDS011;9905;52.126;5.596;2023-04-24T10:02:45;13.63;;;12.70;;
19521;SDS011;9905;52.126;5.596;2023-04-24T10:05:16;14.20;;;13.20;;
19521;SDS011;9905;52.126;5.596;2023-04-24T10:07:43;13.90;;;13.00;;
19521;SDS011;9905;52.126;5.596;2023-04-24T10:10:12;13.52;;;12.68;;
19521;SDS011;9905;52.126;5.596;2023-04-24T10:12:39;13.25;;;12.10;;
19521;SDS011;9905;52.126;5.596;2023-04-24T10:15:07;12.73;;;11.98;;
19521;SDS011;9905;52.126;5.596;2023-04-24T10:17:37;13.13;;;12.15;;
19521;SDS011;9905;52.126;5.596;2023-04-24T10:20:05;12.38;;;11.68;;
19521;SDS011;9905;52.126;5.596;2023-04-24T10:22:33;13.05;;;12.35;;
19521;SDS011;9905;52.126;5.596;2023-04-24T10:25:01;12.00;;;11.30;;
19521;SDS011;9905;52.126;5.596;2023-04-24T10:27:33;11.07;;;10.57;;
19521;SDS011;9905;52.126;5.596;2023-04-24T10:30:01;10.68;;;10.00;;
19521;SDS011;9905;52.126;5.596;2023-04-24T10:32:29;10.93;;;10.20;;
19521;SDS011;9905;52.126;5.596;2023-04-24T10:34:56;10.35;;;9.68;;
19521;SDS011;9905;52.126;5.596;2023-04-24T10:37:23;9.85;;;9.45;;
19521;SDS011;9905;52.126;5.596;2023-04-24T10:39:50;10.82;;;9.77;;
19521;SDS011;9905;52.126;5.596;2023-04-24T10:42:19;10.65;;;9.70;;
19521;SDS011;9905;52.126;5.596;2023-04-24T10:44:48;9.90;;;9.10;;
19521;SDS011;9905;52.126;5.596;2023-04-24T10:47:15;9.63;;;9.00;;
19521;SDS011;9905;52.126;5.596;2023-04-24T10:49:42;8.88;;;8.48;;
19521;SDS011;9905;52.126;5.596;2023-04-24T10:52:09;8.93;;;7.78;;
19521;SDS011;9905;52.126;5.596;2023-04-24T10:54:40;7.65;;;7.00;;
19521;SDS011;9905;52.126;5.596;2023-04-24T10:57:25;7.47;;;7.00;;
19521;SDS011;9905;52.126;5.596;2023-04-24T11:02:52;6.88;;;6.60;;
19521;SDS011;9905;52.126;5.596;2023-04-24T11:05:20;5.95;;;5.60;;
19521;SDS011;9905;52.126;5.596;2023-04-24T11:10:38;6.07;;;5.65;;
19521;SDS011;9905;52.126;5.596;2023-04-24T11:13:06;7.00;;;6.60;;
19521;SDS011;9905;52.126;5.596;2023-04-24T11:15:33;6.85;;;6.45;;
19521;SDS011;9905;52.126;5.596;2023-04-24T11:18:01;7.07;;;6.72;;
19521;SDS011;9905;52.126;5.596;2023-04-24T11:20:28;6.35;;;6.10;;
19521;SDS011;9905;52.126;5.596;2023-04-24T11:22:55;6.72;;;6.32;;
19521;SDS011;9905;52.126;5.596;2023-04-24T11:25:30;6.00;;;5.90;;
19521;SDS011;9905;52.126;5.596;2023-04-24T11:28:02;7.50;;;7.00;;
19521;SDS011;9905;52.126;5.596;2023-04-24T11:30:31;7.00;;;6.80;;
19521;SDS011;9905;52.126;5.596;2023-04-24T11:33:02;8.15;;;7.40;;
19521;SDS011;9905;52.126;5.596;2023-04-24T11:35:30;8.43;;;7.93;;
19521;SDS011;9905;52.126;5.596;2023-04-24T11:38:02;8.27;;;7.93;;
19521;SDS011;9905;52.126;5.596;2023-04-24T11:40:30;8.85;;;8.45;;
19521;SDS011;9905;52.126;5.596;2023-04-24T11:42:59;9.23;;;8.63;;
19521;SDS011;9905;52.126;5.596;2023-04-24T11:45:27;8.15;;;7.95;;
19521;SDS011;9905;52.126;5.596;2023-04-24T11:47:54;8.48;;;7.90;;
19521;SDS011;9905;52.126;5.596;2023-04-24T11:50:24;8.27;;;7.85;;
19521;SDS011;9905;52.126;5.596;2023-04-24T11:52:52;7.80;;;7.60;;
19521;SDS011;9905;52.126;5.596;2023-04-24T11:55:24;8.15;;;7.40;;
19521;SDS011;9905;52.126;5.596;2023-04-24T11:57:53;6.35;;;6.10;;
19521;SDS011;9905;52.126;5.596;2023-04-24T12:00:22;6.30;;;5.75;;
19521;SDS011;9905;52.126;5.596;2023-04-24T12:02:50;6.28;;;5.82;;
19521;SDS011;9905;52.126;5.596;2023-04-24T12:05:19;6.18;;;5.78;;
19521;SDS011;9905;52.126;5.596;2023-04-24T12:07:47;6.35;;;6.15;;
19521;SDS011;9905;52.126;5.596;2023-04-24T12:10:19;6.30;;;5.88;;
19521;SDS011;9905;52.126;5.596;2023-04-24T12:12:46;5.45;;;5.10;;
19521;SDS011;9905;52.126;5.596;2023-04-24T12:15:15;4.82;;;4.57;;
19521;SDS011;9905;52.126;5.596;2023-04-24T12:17:42;4.38;;;4.00;;
19521;SDS011;9905;52.126;5.596;2023-04-24T12:20:10;3.90;;;3.80;;
19521;SDS011;9905;52.126;5.596;2023-04-24T12:22:44;3.97;;;3.88;;
19521;SDS011;9905;52.126;5.596;2023-04-24T12:25:13;4.05;;;3.85;;
19521;SDS011;9905;52.126;5.596;2023-04-24T12:27:43;3.78;;;3.58;;
19521;SDS011;9905;52.126;5.596;2023-04-24T12:30:11;3.33;;;3.22;;
19521;SDS011;9905;52.126;5.596;2023-04-24T12:32:42;3.30;;;3.20;;
19521;SDS011;9905;52.126;5.596;2023-04-24T12:35:09;3.20;;;3.20;;
19521;SDS011;9905;52.126;5.596;2023-04-24T12:37:36;3.90;;;3.40;;
19521;SDS011;9905;52.126;5.596;2023-04-24T12:40:05;3.67;;;3.47;;
19521;SDS011;9905;52.126;5.596;2023-04-24T12:42:35;3.95;;;3.75;;
19521;SDS011;9905;52.126;5.596;2023-04-24T12:45:09;3.50;;;3.40;;
19521;SDS011;9905;52.126;5.596;2023-04-24T12:47:38;3.42;;;3.25;;
19521;SDS011;9905;52.126;5.596;2023-04-24T12:50:05;3.63;;;3.30;;
19521;SDS011;9905;52.126;5.596;2023-04-24T12:52:33;3.90;;;3.55;;
19521;SDS011;9905;52.126;5.596;2023-04-24T12:55:00;2.92;;;2.80;;
19521;SDS011;9905;52.126;5.596;2023-04-24T12:57:28;3.88;;;3.58;;
19521;SDS011;9905;52.126;5.596;2023-04-24T12:59:57;3.40;;;3.00;;
19521;SDS011;9905;52.126;5.596;2023-04-24T13:02:25;3.22;;;3.03;;
19521;SDS011;9905;52.126;5.596;2023-04-24T13:04:54;3.63;;;3.33;;
19521;SDS011;9905;52.126;5.596;2023-04-24T13:07:21;5.97;;;3.50;;
19521;SDS011;9905;52.126;5.596;2023-04-24T13:09:48;3.55;;;3.35;;
19521;SDS011;9905;52.126;5.596;2023-04-24T13:12:15;6.90;;;3.65;;
19521;SDS011;9905;52.126;5.596;2023-04-24T13:14:42;4.38;;;3.60;;
19521;SDS011;9905;52.126;5.596;2023-04-24T13:17:11;4.43;;;4.10;;
19521;SDS011;9905;52.126;5.596;2023-04-24T13:19:39;7.68;;;4.25;;
19521;SDS011;9905;52.126;5.596;2023-04-24T13:22:08;4.63;;;4.18;;
19521;SDS011;9905;52.126;5.596;2023-04-24T13:24:36;8.52;;;5.00;;
19521;SDS011;9905;52.126;5.596;2023-04-24T13:27:04;5.10;;;4.60;;
19521;SDS011;9905;52.126;5.596;2023-04-24T13:29:31;5.93;;;4.93;;
19521;SDS011;9905;52.126;5.596;2023-04-24T13:31:58;7.03;;;5.30;;
19521;SDS011;9905;52.126;5.596;2023-04-24T13:34:27;5.60;;;5.05;;
19521;SDS011;9905;52.126;5.596;2023-04-24T13:36:55;6.38;;;5.20;;
19521;SDS011;9905;52.126;5.596;2023-04-24T13:39:24;8.02;;;4.80;;
19521;SDS011;9905;52.126;5.596;2023-04-24T13:41:51;9.65;;;4.70;;
19521;SDS011;9905;52.126;5.596;2023-04-24T13:44:18;5.00;;;4.60;;
19521;SDS011;9905;52.126;5.596;2023-04-24T13:46:47;6.85;;;4.50;;
19521;SDS011;9905;52.126;5.596;2023-04-24T13:49:15;9.25;;;4.85;;
19521;SDS011;9905;52.126;5.596;2023-04-24T13:51:43;5.53;;;4.72;;
19521;SDS011;9905;52.126;5.596;2023-04-24T13:54:10;4.18;;;3.72;;
19521;SDS011;9905;52.126;5.596;2023-04-24T13:56:37;6.65;;;4.40;;
19521;SDS011;9905;52.126;5.596;2023-04-24T13:59:04;7.55;;;4.00;;
19521;SDS011;9905;52.126;5.596;2023-04-24T14:01:31;5.25;;;3.92;;
19521;SDS011;9905;52.126;5.596;2023-04-24T14:03:58;8.00;;;3.72;;
19521;SDS011;9905;52.126;5.596;2023-04-24T14:06:25;3.80;;;3.50;;
19521;SDS011;9905;52.126;5.596;2023-04-24T14:08:53;7.03;;;3.80;;
19521;SDS011;9905;52.126;5.596;2023-04-24T14:11:19;5.13;;;4.22;;
19521;SDS011;9905;52.126;5.596;2023-04-24T14:13:47;8.95;;;4.20;;
19521;SDS011;9905;52.126;5.596;2023-04-24T14:16:14;5.28;;;4.05;;
19521;SDS011;9905;52.126;5.596;2023-04-24T14:18:40;6.65;;;4.22;;
19521;SDS011;9905;52.126;5.596;2023-04-24T14:21:07;5.05;;;3.80;;
19521;SDS011;9905;52.126;5.596;2023-04-24T14:23:34;6.82;;;3.85;;
19521;SDS011;9905;52.126;5.596;2023-04-24T14:26:02;6.88;;;4.10;;
19521;SDS011;9905;52.126;5.596;2023-04-24T14:28:29;11.02;;;4.13;;
19521;SDS011;9905;52.126;5.596;2023-04-24T14:30:56;7.78;;;4.32;;
19521;SDS011;9905;52.126;5.596;2023-04-24T14:33:22;9.25;;;3.72;;
19521;SDS011;9905;52.126;5.596;2023-04-24T14:35:49;9.95;;;5.25;;
19521;SDS011;9905;52.126;5.596;2023-04-24T14:38:16;7.50;;;4.00;;
19521;SDS011;9905;52.126;5.596;2023-04-24T14:40:42;6.03;;;4.25;;
19521;SDS011;9905;52.126;5.596;2023-04-24T14:43:11;4.68;;;4.00;;
19521;SDS011;9905;52.126;5.596;2023-04-24T14:45:37;7.20;;;4.13;;
19521;SDS011;9905;52.126;5.596;2023-04-24T14:48:05;4.32;;;3.95;;